sensor_id;sensor_type;location;lat;lon;timestamp;P1;durP1;ratioP1;P2;durP2;ratioP2
76566;SDS011;65428;53.194;6.132;2023-05-27T00:01:23;9.20;;;3.90;;
76566;SDS011;65428;53.194;6.132;2023-05-27T00:03:49;9.67;;;4.10;;
76566;SDS011;65428;53.194;6.132;2023-05-27T00:06:15;10.57;;;4.00;;
76566;SDS011;65428;53.194;6.132;2023-05-27T00:08:40;11.00;;;3.90;;
76566;SDS011;65428;53.194;6.132;2023-05-27T00:11:06;9.23;;;3.80;;
76566;SDS011;65428;53.194;6.132;2023-05-27T00:13:31;12.68;;;4.43;;
76566;SDS011;65428;53.194;6.132;2023-05-27T00:15:57;10.33;;;3.97;;
76566;SDS011;65428;53.194;6.132;2023-05-27T00:18:23;8.55;;;4.00;;
76566;SDS011;65428;53.194;6.132;2023-05-27T00:20:48;13.87;;;5.70;;
76566;SDS011;65428;53.194;6.132;2023-05-27T00:23:14;11.70;;;5.40;;
76566;SDS011;65428;53.194;6.132;2023-05-27T00:25:40;9.88;;;4.30;;
76566;SDS011;65428;53.194;6.132;2023-05-27T00:28:05;10.95;;;4.32;;
76566;SDS011;65428;53.194;6.132;2023-05-27T00:30:31;10.53;;;4.70;;
76566;SDS011;65428;53.194;6.132;2023-05-27T00:32:57;12.38;;;5.15;;
76566;SDS011;65428;53.194;6.132;2023-05-27T00:35:23;12.70;;;4.75;;
76566;SDS011;65428;53.194;6.132;2023-05-27T00:37:48;11.38;;;4.55;;
76566;SDS011;65428;53.194;6.132;2023-05-27T00:40:15;12.35;;;4.47;;
76566;SDS011;65428;53.194;6.132;2023-05-27T00:42:45;10.30;;;4.03;;
76566;SDS011;65428;53.194;6.132;2023-05-27T00:45:11;9.30;;;4.20;;
76566;SDS011;65428;53.194;6.132;2023-05-27T00:47:37;10.60;;;4.50;;
76566;SDS011;65428;53.194;6.132;2023-05-27T00:50:03;11.18;;;4.70;;
76566;SDS011;65428;53.194;6.132;2023-05-27T00:52:29;6.27;;;2.87;;
76566;SDS011;65428;53.194;6.132;2023-05-27T00:54:55;8.25;;;3.03;;
76566;SDS011;65428;53.194;6.132;2023-05-27T00:57:22;8.52;;;3.55;;
76566;SDS011;65428;53.194;6.132;2023-05-27T00:59:47;9.88;;;4.25;;
76566;SDS011;65428;53.194;6.132;2023-05-27T01:02:13;9.80;;;4.13;;
76566;SDS011;65428;53.194;6.132;2023-05-27T01:04:40;7.47;;;3.70;;
76566;SDS011;65428;53.194;6.132;2023-05-27T01:07:27;9.13;;;3.50;;
76566;SDS011;65428;53.194;6.132;2023-05-27T01:10:06;8.65;;;3.70;;
76566;SDS011;65428;53.194;6.132;2023-05-27T01:13:05;9.48;;;3.42;;
76566;SDS011;65428;53.194;6.132;2023-05-27T01:15:38;12.10;;;4.38;;
76566;SDS011;65428;53.194;6.132;2023-05-27T01:18:05;9.73;;;4.55;;
76566;SDS011;65428;53.194;6.132;2023-05-27T01:20:34;16.08;;;5.78;;
76566;SDS011;65428;53.194;6.132;2023-05-27T01:23:05;11.18;;;4.65;;
76566;SDS011;65428;53.194;6.132;2023-05-27T01:25:33;11.63;;;4.18;;
76566;SDS011;65428;53.194;6.132;2023-05-27T01:27:58;11.70;;;4.88;;
76566;SDS011;65428;53.194;6.132;2023-05-27T01:30:24;12.88;;;5.20;;
76566;SDS011;65428;53.194;6.132;2023-05-27T01:32:55;12.95;;;5.28;;
76566;SDS011;65428;53.194;6.132;2023-05-27T01:38:16;12.80;;;4.45;;
76566;SDS011;65428;53.194;6.132;2023-05-27T01:40:44;16.77;;;5.65;;
76566;SDS011;65428;53.194;6.132;2023-05-27T01:43:12;12.80;;;4.97;;
76566;SDS011;65428;53.194;6.132;2023-05-27T01:45:40;15.35;;;5.00;;
76566;SDS011;65428;53.194;6.132;2023-05-27T01:48:07;15.40;;;5.18;;
76566;SDS011;65428;53.194;6.132;2023-05-27T01:50:34;13.68;;;4.88;;
76566;SDS011;65428;53.194;6.132;2023-05-27T01:53:00;19.33;;;6.05;;
76566;SDS011;65428;53.194;6.132;2023-05-27T01:55:28;12.68;;;4.57;;
76566;SDS011;65428;53.194;6.132;2023-05-27T01:57:55;12.93;;;5.00;;
76566;SDS011;65428;53.194;6.132;2023-05-27T02:00:21;12.63;;;4.80;;
76566;SDS011;65428;53.194;6.132;2023-05-27T02:02:47;14.07;;;5.65;;
76566;SDS011;65428;53.194;6.132;2023-05-27T02:05:13;6.13;;;3.38;;
76566;SDS011;65428;53.194;6.132;2023-05-27T02:07:38;6.75;;;2.83;;
76566;SDS011;65428;53.194;6.132;2023-05-27T02:10:04;9.23;;;3.23;;
76566;SDS011;65428;53.194;6.132;2023-05-27T02:12:30;7.90;;;3.45;;
76566;SDS011;65428;53.194;6.132;2023-05-27T02:14:56;9.68;;;3.95;;
76566;SDS011;65428;53.194;6.132;2023-05-27T02:17:22;13.40;;;4.17;;
76566;SDS011;65428;53.194;6.132;2023-05-27T02:19:49;12.65;;;4.35;;
76566;SDS011;65428;53.194;6.132;2023-05-27T02:22:15;11.13;;;3.75;;
76566;SDS011;65428;53.194;6.132;2023-05-27T02:24:42;10.57;;;3.90;;
76566;SDS011;65428;53.194;6.132;2023-05-27T02:27:07;13.07;;;4.77;;
76566;SDS011;65428;53.194;6.132;2023-05-27T02:29:33;12.82;;;4.50;;
76566;SDS011;65428;53.194;6.132;2023-05-27T02:31:59;11.70;;;4.15;;
76566;SDS011;65428;53.194;6.132;2023-05-27T02:34:24;11.20;;;4.10;;
76566;SDS011;65428;53.194;6.132;2023-05-27T02:36:50;14.55;;;5.00;;
76566;SDS011;65428;53.194;6.132;2023-05-27T02:39:16;18.60;;;5.50;;
76566;SDS011;65428;53.194;6.132;2023-05-27T02:41:42;14.50;;;4.83;;
76566;SDS011;65428;53.194;6.132;2023-05-27T02:44:08;16.67;;;5.18;;
76566;SDS011;65428;53.194;6.132;2023-05-27T02:46:33;11.70;;;4.43;;
76566;SDS011;65428;53.194;6.132;2023-05-27T02:48:59;14.87;;;5.60;;
76566;SDS011;65428;53.194;6.132;2023-05-27T02:51:24;10.65;;;3.92;;
76566;SDS011;65428;53.194;6.132;2023-05-27T02:53:50;11.35;;;4.20;;
76566;SDS011;65428;53.194;6.132;2023-05-27T02:56:16;12.23;;;3.90;;
76566;SDS011;65428;53.194;6.132;2023-05-27T02:58:42;13.68;;;4.90;;
76566;SDS011;65428;53.194;6.132;2023-05-27T03:01:08;12.67;;;4.27;;
76566;SDS011;65428;53.194;6.132;2023-05-27T03:03:33;11.60;;;4.22;;
76566;SDS011;65428;53.194;6.132;2023-05-27T03:05:59;13.73;;;4.28;;
76566;SDS011;65428;53.194;6.132;2023-05-27T03:08:25;14.05;;;4.97;;
76566;SDS011;65428;53.194;6.132;2023-05-27T03:10:51;12.73;;;4.27;;
76566;SDS011;65428;53.194;6.132;2023-05-27T03:13:16;11.02;;;4.15;;
76566;SDS011;65428;53.194;6.132;2023-05-27T03:15:42;8.60;;;3.92;;
76566;SDS011;65428;53.194;6.132;2023-05-27T03:18:08;10.53;;;4.13;;
76566;SDS011;65428;53.194;6.132;2023-05-27T03:20:33;13.47;;;4.40;;
76566;SDS011;65428;53.194;6.132;2023-05-27T03:22:59;17.23;;;6.25;;
76566;SDS011;65428;53.194;6.132;2023-05-27T03:25:25;13.23;;;4.88;;
76566;SDS011;65428;53.194;6.132;2023-05-27T03:27:51;14.95;;;4.28;;
76566;SDS011;65428;53.194;6.132;2023-05-27T03:30:18;12.10;;;4.57;;
76566;SDS011;65428;53.194;6.132;2023-05-27T03:32:44;12.10;;;3.97;;
76566;SDS011;65428;53.194;6.132;2023-05-27T03:35:09;11.53;;;3.87;;
76566;SDS011;65428;53.194;6.132;2023-05-27T03:37:35;12.97;;;5.07;;
76566;SDS011;65428;53.194;6.132;2023-05-27T03:40:01;11.30;;;4.72;;
76566;SDS011;65428;53.194;6.132;2023-05-27T03:42:28;12.13;;;4.50;;
76566;SDS011;65428;53.194;6.132;2023-05-27T03:44:54;11.40;;;4.15;;
76566;SDS011;65428;53.194;6.132;2023-05-27T03:47:19;13.27;;;4.70;;
76566;SDS011;65428;53.194;6.132;2023-05-27T03:49:46;15.05;;;5.55;;
76566;SDS011;65428;53.194;6.132;2023-05-27T03:52:12;15.50;;;5.57;;
76566;SDS011;65428;53.194;6.132;2023-05-27T03:54:38;21.88;;;6.53;;
76566;SDS011;65428;53.194;6.132;2023-05-27T03:57:04;23.20;;;7.03;;
76566;SDS011;65428;53.194;6.132;2023-05-27T03:59:30;21.50;;;6.78;;
76566;SDS011;65428;53.194;6.132;2023-05-27T04:01:56;21.77;;;6.30;;
76566;SDS011;65428;53.194;6.132;2023-05-27T04:04:22;18.00;;;6.03;;
76566;SDS011;65428;53.194;6.132;2023-05-27T04:06:47;12.60;;;5.05;;
76566;SDS011;65428;53.194;6.132;2023-05-27T04:09:13;17.33;;;5.97;;
76566;SDS011;65428;53.194;6.132;2023-05-27T04:11:39;16.43;;;5.47;;
76566;SDS011;65428;53.194;6.132;2023-05-27T04:14:04;13.25;;;5.45;;
76566;SDS011;65428;53.194;6.132;2023-05-27T04:16:31;11.65;;;4.70;;
76566;SDS011;65428;53.194;6.132;2023-05-27T04:18:58;15.20;;;5.15;;
76566;SDS011;65428;53.194;6.132;2023-05-27T04:21:25;12.83;;;4.90;;
76566;SDS011;65428;53.194;6.132;2023-05-27T04:23:51;13.30;;;5.07;;
76566;SDS011;65428;53.194;6.132;2023-05-27T04:26:16;14.03;;;5.80;;
76566;SDS011;65428;53.194;6.132;2023-05-27T04:28:43;16.55;;;6.20;;
76566;SDS011;65428;53.194;6.132;2023-05-27T04:31:10;19.35;;;6.38;;
76566;SDS011;65428;53.194;6.132;2023-05-27T04:33:40;20.77;;;7.13;;
76566;SDS011;65428;53.194;6.132;2023-05-27T04:36:07;16.80;;;6.63;;
76566;SDS011;65428;53.194;6.132;2023-05-27T04:38:33;16.55;;;6.18;;
76566;SDS011;65428;53.194;6.132;2023-05-27T04:40:59;19.30;;;7.10;;
76566;SDS011;65428;53.194;6.132;2023-05-27T04:43:24;17.73;;;6.13;;
76566;SDS011;65428;53.194;6.132;2023-05-27T04:45:51;21.50;;;7.33;;
76566;SDS011;65428;53.194;6.132;2023-05-27T04:48:17;19.27;;;6.93;;
76566;SDS011;65428;53.194;6.132;2023-05-27T04:50:43;16.33;;;6.97;;
76566;SDS011;65428;53.194;6.132;2023-05-27T04:53:09;26.45;;;7.90;;
76566;SDS011;65428;53.194;6.132;2023-05-27T04:55:34;20.13;;;7.30;;
76566;SDS011;65428;53.194;6.132;2023-05-27T04:58:01;19.30;;;6.85;;
76566;SDS011;65428;53.194;6.132;2023-05-27T05:00:30;18.75;;;6.68;;
76566;SDS011;65428;53.194;6.132;2023-05-27T05:03:21;21.58;;;7.65;;
76566;SDS011;65428;53.194;6.132;2023-05-27T05:05:50;20.02;;;7.40;;
76566;SDS011;65428;53.194;6.132;2023-05-27T05:08:17;21.10;;;7.88;;
76566;SDS011;65428;53.194;6.132;2023-05-27T05:10:46;22.00;;;7.75;;
76566;SDS011;65428;53.194;6.132;2023-05-27T05:13:13;18.75;;;6.90;;
76566;SDS011;65428;53.194;6.132;2023-05-27T05:15:39;20.60;;;7.60;;
76566;SDS011;65428;53.194;6.132;2023-05-27T05:18:05;18.90;;;7.32;;
76566;SDS011;65428;53.194;6.132;2023-05-27T05:20:31;20.23;;;7.38;;
76566;SDS011;65428;53.194;6.132;2023-05-27T05:22:57;20.60;;;6.90;;
76566;SDS011;65428;53.194;6.132;2023-05-27T05:25:23;21.73;;;7.37;;
76566;SDS011;65428;53.194;6.132;2023-05-27T05:27:50;16.37;;;6.60;;
76566;SDS011;65428;53.194;6.132;2023-05-27T05:30:16;24.38;;;8.32;;
76566;SDS011;65428;53.194;6.132;2023-05-27T05:32:42;21.42;;;6.90;;
76566;SDS011;65428;53.194;6.132;2023-05-27T05:35:07;19.20;;;7.78;;
76566;SDS011;65428;53.194;6.132;2023-05-27T05:37:33;18.67;;;6.73;;
76566;SDS011;65428;53.194;6.132;2023-05-27T05:39:59;19.98;;;6.65;;
76566;SDS011;65428;53.194;6.132;2023-05-27T05:42:24;19.45;;;7.28;;
76566;SDS011;65428;53.194;6.132;2023-05-27T05:44:51;20.17;;;7.07;;
76566;SDS011;65428;53.194;6.132;2023-05-27T05:47:17;19.03;;;6.77;;
76566;SDS011;65428;53.194;6.132;2023-05-27T05:49:43;20.30;;;6.80;;
76566;SDS011;65428;53.194;6.132;2023-05-27T05:52:09;18.20;;;6.25;;
76566;SDS011;65428;53.194;6.132;2023-05-27T05:54:34;15.60;;;5.70;;
76566;SDS011;65428;53.194;6.132;2023-05-27T05:57:00;17.53;;;5.70;;
76566;SDS011;65428;53.194;6.132;2023-05-27T05:59:27;18.58;;;5.38;;
76566;SDS011;65428;53.194;6.132;2023-05-27T06:01:53;16.17;;;5.47;;
76566;SDS011;65428;53.194;6.132;2023-05-27T06:04:19;17.23;;;5.53;;
76566;SDS011;65428;53.194;6.132;2023-05-27T06:06:45;17.02;;;5.25;;
76566;SDS011;65428;53.194;6.132;2023-05-27T06:09:11;17.70;;;4.78;;
76566;SDS011;65428;53.194;6.132;2023-05-27T06:11:36;16.97;;;5.70;;
76566;SDS011;65428;53.194;6.132;2023-05-27T06:14:02;14.38;;;4.60;;
76566;SDS011;65428;53.194;6.132;2023-05-27T06:16:28;15.63;;;4.35;;
76566;SDS011;65428;53.194;6.132;2023-05-27T06:18:54;15.07;;;4.03;;
76566;SDS011;65428;53.194;6.132;2023-05-27T06:21:20;18.52;;;4.32;;
76566;SDS011;65428;53.194;6.132;2023-05-27T06:23:46;13.75;;;3.90;;
76566;SDS011;65428;53.194;6.132;2023-05-27T06:26:12;15.97;;;3.83;;
76566;SDS011;65428;53.194;6.132;2023-05-27T06:28:38;15.43;;;4.35;;
76566;SDS011;65428;53.194;6.132;2023-05-27T06:31:04;16.87;;;4.37;;
76566;SDS011;65428;53.194;6.132;2023-05-27T06:33:29;16.27;;;4.18;;
76566;SDS011;65428;53.194;6.132;2023-05-27T06:35:55;13.97;;;4.03;;
76566;SDS011;65428;53.194;6.132;2023-05-27T06:38:20;13.10;;;3.65;;
76566;SDS011;65428;53.194;6.132;2023-05-27T06:40:48;17.67;;;4.13;;
76566;SDS011;65428;53.194;6.132;2023-05-27T06:43:13;15.83;;;4.03;;
76566;SDS011;65428;53.194;6.132;2023-05-27T06:45:39;15.65;;;4.82;;
76566;SDS011;65428;53.194;6.132;2023-05-27T06:48:05;14.07;;;3.47;;
76566;SDS011;65428;53.194;6.132;2023-05-27T06:50:32;15.30;;;4.07;;
76566;SDS011;65428;53.194;6.132;2023-05-27T06:52:58;17.08;;;4.00;;
76566;SDS011;65428;53.194;6.132;2023-05-27T06:55:24;17.85;;;4.50;;
76566;SDS011;65428;53.194;6.132;2023-05-27T06:57:50;15.07;;;3.63;;
76566;SDS011;65428;53.194;6.132;2023-05-27T07:00:16;15.70;;;3.95;;
76566;SDS011;65428;53.194;6.132;2023-05-27T07:02:42;13.40;;;3.83;;
76566;SDS011;65428;53.194;6.132;2023-05-27T07:05:07;15.27;;;4.20;;
76566;SDS011;65428;53.194;6.132;2023-05-27T07:07:33;16.30;;;4.05;;
76566;SDS011;65428;53.194;6.132;2023-05-27T07:09:59;15.20;;;4.03;;
76566;SDS011;65428;53.194;6.132;2023-05-27T07:12:24;16.70;;;4.00;;
76566;SDS011;65428;53.194;6.132;2023-05-27T07:14:50;14.88;;;3.90;;
76566;SDS011;65428;53.194;6.132;2023-05-27T07:17:15;13.33;;;4.17;;
76566;SDS011;65428;53.194;6.132;2023-05-27T07:19:41;12.43;;;3.92;;
76566;SDS011;65428;53.194;6.132;2023-05-27T07:22:07;17.30;;;4.33;;
76566;SDS011;65428;53.194;6.132;2023-05-27T07:24:32;14.32;;;4.22;;
76566;SDS011;65428;53.194;6.132;2023-05-27T07:26:58;15.20;;;3.93;;
76566;SDS011;65428;53.194;6.132;2023-05-27T07:29:24;11.55;;;3.70;;
76566;SDS011;65428;53.194;6.132;2023-05-27T07:31:50;14.43;;;4.60;;
76566;SDS011;65428;53.194;6.132;2023-05-27T07:34:15;16.60;;;4.60;;
76566;SDS011;65428;53.194;6.132;2023-05-27T07:36:41;14.55;;;3.83;;
76566;SDS011;65428;53.194;6.132;2023-05-27T07:39:06;14.70;;;4.13;;
76566;SDS011;65428;53.194;6.132;2023-05-27T07:41:32;14.82;;;4.07;;
76566;SDS011;65428;53.194;6.132;2023-05-27T07:43:58;14.40;;;4.30;;
76566;SDS011;65428;53.194;6.132;2023-05-27T07:46:23;14.35;;;4.00;;
76566;SDS011;65428;53.194;6.132;2023-05-27T07:48:49;15.67;;;4.23;;
76566;SDS011;65428;53.194;6.132;2023-05-27T07:51:15;12.25;;;4.03;;
76566;SDS011;65428;53.194;6.132;2023-05-27T07:53:41;16.17;;;4.57;;
76566;SDS011;65428;53.194;6.132;2023-05-27T07:56:06;16.83;;;4.33;;
76566;SDS011;65428;53.194;6.132;2023-05-27T07:58:32;16.55;;;4.32;;
76566;SDS011;65428;53.194;6.132;2023-05-27T08:00:58;14.30;;;4.20;;
76566;SDS011;65428;53.194;6.132;2023-05-27T08:03:23;14.98;;;3.90;;
76566;SDS011;65428;53.194;6.132;2023-05-27T08:05:49;14.63;;;4.80;;
76566;SDS011;65428;53.194;6.132;2023-05-27T08:08:15;14.20;;;3.77;;
76566;SDS011;65428;53.194;6.132;2023-05-27T08:10:40;15.57;;;4.03;;
76566;SDS011;65428;53.194;6.132;2023-05-27T08:13:06;15.80;;;4.10;;
76566;SDS011;65428;53.194;6.132;2023-05-27T08:15:32;12.87;;;3.70;;
76566;SDS011;65428;53.194;6.132;2023-05-27T08:17:57;16.17;;;4.47;;
76566;SDS011;65428;53.194;6.132;2023-05-27T08:20:23;16.80;;;4.50;;
76566;SDS011;65428;53.194;6.132;2023-05-27T08:22:48;14.40;;;4.22;;
76566;SDS011;65428;53.194;6.132;2023-05-27T08:25:14;18.73;;;5.27;;
76566;SDS011;65428;53.194;6.132;2023-05-27T08:27:44;16.40;;;4.95;;
76566;SDS011;65428;53.194;6.132;2023-05-27T08:30:26;16.88;;;4.93;;
76566;SDS011;65428;53.194;6.132;2023-05-27T08:32:53;15.82;;;5.03;;
76566;SDS011;65428;53.194;6.132;2023-05-27T08:35:20;15.68;;;4.47;;
76566;SDS011;65428;53.194;6.132;2023-05-27T08:37:45;15.52;;;4.72;;
76566;SDS011;65428;53.194;6.132;2023-05-27T08:40:13;15.10;;;4.40;;
76566;SDS011;65428;53.194;6.132;2023-05-27T08:42:39;15.90;;;5.03;;
76566;SDS011;65428;53.194;6.132;2023-05-27T08:45:06;13.47;;;4.10;;
76566;SDS011;65428;53.194;6.132;2023-05-27T08:47:32;15.32;;;4.50;;
76566;SDS011;65428;53.194;6.132;2023-05-27T08:49:58;14.05;;;4.53;;
76566;SDS011;65428;53.194;6.132;2023-05-27T08:52:24;18.13;;;4.40;;
76566;SDS011;65428;53.194;6.132;2023-05-27T08:54:53;16.23;;;4.95;;
76566;SDS011;65428;53.194;6.132;2023-05-27T08:57:21;14.85;;;4.68;;
76566;SDS011;65428;53.194;6.132;2023-05-27T08:59:51;13.17;;;4.20;;
76566;SDS011;65428;53.194;6.132;2023-05-27T09:02:17;15.90;;;4.32;;
76566;SDS011;65428;53.194;6.132;2023-05-27T09:04:44;14.70;;;4.53;;
76566;SDS011;65428;53.194;6.132;2023-05-27T09:07:11;15.52;;;4.93;;
76566;SDS011;65428;53.194;6.132;2023-05-27T09:09:38;14.77;;;4.47;;
76566;SDS011;65428;53.194;6.132;2023-05-27T09:12:04;17.00;;;4.90;;
76566;SDS011;65428;53.194;6.132;2023-05-27T09:14:31;13.25;;;4.50;;
76566;SDS011;65428;53.194;6.132;2023-05-27T09:16:57;14.38;;;4.47;;
76566;SDS011;65428;53.194;6.132;2023-05-27T09:19:29;12.18;;;4.65;;
76566;SDS011;65428;53.194;6.132;2023-05-27T09:21:55;14.40;;;4.68;;
76566;SDS011;65428;53.194;6.132;2023-05-27T09:24:24;14.80;;;5.07;;
76566;SDS011;65428;53.194;6.132;2023-05-27T09:26:51;15.43;;;4.85;;
76566;SDS011;65428;53.194;6.132;2023-05-27T09:29:18;15.43;;;5.13;;
76566;SDS011;65428;53.194;6.132;2023-05-27T09:31:44;17.10;;;5.35;;
76566;SDS011;65428;53.194;6.132;2023-05-27T09:34:11;14.65;;;4.60;;
76566;SDS011;65428;53.194;6.132;2023-05-27T09:36:44;16.27;;;5.20;;
76566;SDS011;65428;53.194;6.132;2023-05-27T09:39:12;11.83;;;4.40;;
76566;SDS011;65428;53.194;6.132;2023-05-27T09:41:38;14.20;;;4.57;;
76566;SDS011;65428;53.194;6.132;2023-05-27T09:44:05;14.70;;;4.78;;
76566;SDS011;65428;53.194;6.132;2023-05-27T09:46:31;16.93;;;5.87;;
76566;SDS011;65428;53.194;6.132;2023-05-27T09:48:58;16.60;;;5.10;;
76566;SDS011;65428;53.194;6.132;2023-05-27T09:51:25;16.17;;;5.10;;
76566;SDS011;65428;53.194;6.132;2023-05-27T09:53:51;17.37;;;5.60;;
76566;SDS011;65428;53.194;6.132;2023-05-27T09:56:22;12.55;;;5.05;;
76566;SDS011;65428;53.194;6.132;2023-05-27T09:58:48;14.63;;;5.20;;
76566;SDS011;65428;53.194;6.132;2023-05-27T10:01:14;14.38;;;4.72;;
76566;SDS011;65428;53.194;6.132;2023-05-27T10:03:42;14.65;;;5.22;;
76566;SDS011;65428;53.194;6.132;2023-05-27T10:06:11;17.25;;;4.95;;
76566;SDS011;65428;53.194;6.132;2023-05-27T10:08:41;13.48;;;4.65;;
76566;SDS011;65428;53.194;6.132;2023-05-27T10:11:08;17.75;;;5.43;;
76566;SDS011;65428;53.194;6.132;2023-05-27T10:13:35;13.73;;;4.60;;
76566;SDS011;65428;53.194;6.132;2023-05-27T10:16:01;14.45;;;4.88;;
76566;SDS011;65428;53.194;6.132;2023-05-27T10:18:27;14.87;;;5.53;;
76566;SDS011;65428;53.194;6.132;2023-05-27T10:20:54;14.70;;;5.45;;
76566;SDS011;65428;53.194;6.132;2023-05-27T10:23:24;12.85;;;5.30;;
76566;SDS011;65428;53.194;6.132;2023-05-27T10:25:52;10.95;;;5.40;;
76566;SDS011;65428;53.194;6.132;2023-05-27T10:31:03;14.90;;;5.30;;
76566;SDS011;65428;53.194;6.132;2023-05-27T10:33:43;15.13;;;5.68;;
76566;SDS011;65428;53.194;6.132;2023-05-27T10:36:11;16.80;;;5.60;;
76566;SDS011;65428;53.194;6.132;2023-05-27T10:38:41;12.70;;;5.17;;
76566;SDS011;65428;53.194;6.132;2023-05-27T10:41:08;13.93;;;5.80;;
76566;SDS011;65428;53.194;6.132;2023-05-27T10:43:35;13.20;;;5.53;;
76566;SDS011;65428;53.194;6.132;2023-05-27T10:46:01;13.27;;;5.15;;
76566;SDS011;65428;53.194;6.132;2023-05-27T10:48:32;15.90;;;5.80;;
76566;SDS011;65428;53.194;6.132;2023-05-27T10:50:58;13.82;;;5.40;;
76566;SDS011;65428;53.194;6.132;2023-05-27T10:53:27;14.60;;;5.72;;
76566;SDS011;65428;53.194;6.132;2023-05-27T10:55:56;11.93;;;5.10;;
76566;SDS011;65428;53.194;6.132;2023-05-27T10:58:23;13.13;;;5.78;;
76566;SDS011;65428;53.194;6.132;2023-05-27T11:00:52;14.83;;;5.33;;
76566;SDS011;65428;53.194;6.132;2023-05-27T11:03:19;12.50;;;5.63;;
76566;SDS011;65428;53.194;6.132;2023-05-27T11:05:47;12.98;;;5.28;;
76566;SDS011;65428;53.194;6.132;2023-05-27T11:08:21;15.93;;;5.50;;
76566;SDS011;65428;53.194;6.132;2023-05-27T11:10:47;13.20;;;5.70;;
76566;SDS011;65428;53.194;6.132;2023-05-27T11:13:12;14.73;;;5.50;;
76566;SDS011;65428;53.194;6.132;2023-05-27T11:15:39;11.57;;;5.35;;
76566;SDS011;65428;53.194;6.132;2023-05-27T11:18:07;11.52;;;4.97;;
76566;SDS011;65428;53.194;6.132;2023-05-27T11:20:37;13.40;;;5.40;;
76566;SDS011;65428;53.194;6.132;2023-05-27T11:23:03;12.80;;;5.03;;
76566;SDS011;65428;53.194;6.132;2023-05-27T11:25:39;12.13;;;5.63;;
76566;SDS011;65428;53.194;6.132;2023-05-27T11:28:15;13.10;;;4.87;;
76566;SDS011;65428;53.194;6.132;2023-05-27T11:30:46;12.27;;;5.67;;
76566;SDS011;65428;53.194;6.132;2023-05-27T11:33:11;12.98;;;5.15;;
76566;SDS011;65428;53.194;6.132;2023-05-27T11:35:37;11.98;;;5.50;;
76566;SDS011;65428;53.194;6.132;2023-05-27T11:38:03;13.05;;;5.10;;
76566;SDS011;65428;53.194;6.132;2023-05-27T11:40:35;13.65;;;5.43;;
76566;SDS011;65428;53.194;6.132;2023-05-27T11:43:02;10.23;;;4.75;;
76566;SDS011;65428;53.194;6.132;2023-05-27T11:45:28;13.57;;;5.33;;
76566;SDS011;65428;53.194;6.132;2023-05-27T11:47:53;11.25;;;5.10;;
76566;SDS011;65428;53.194;6.132;2023-05-27T11:50:21;13.43;;;5.30;;
76566;SDS011;65428;53.194;6.132;2023-05-27T11:52:57;11.38;;;4.97;;
76566;SDS011;65428;53.194;6.132;2023-05-27T11:55:29;13.00;;;5.13;;
76566;SDS011;65428;53.194;6.132;2023-05-27T11:57:55;10.60;;;4.82;;
76566;SDS011;65428;53.194;6.132;2023-05-27T12:00:21;9.80;;;4.37;;
76566;SDS011;65428;53.194;6.132;2023-05-27T12:02:46;13.13;;;5.30;;
76566;SDS011;65428;53.194;6.132;2023-05-27T12:05:12;12.90;;;5.43;;
76566;SDS011;65428;53.194;6.132;2023-05-27T12:07:39;12.70;;;5.07;;
76566;SDS011;65428;53.194;6.132;2023-05-27T12:10:06;11.93;;;4.90;;
76566;SDS011;65428;53.194;6.132;2023-05-27T12:12:33;12.93;;;4.90;;
76566;SDS011;65428;53.194;6.132;2023-05-27T12:14:59;12.25;;;5.05;;
76566;SDS011;65428;53.194;6.132;2023-05-27T12:17:25;11.38;;;4.82;;
76566;SDS011;65428;53.194;6.132;2023-05-27T12:19:51;12.57;;;5.03;;
76566;SDS011;65428;53.194;6.132;2023-05-27T12:22:17;11.73;;;5.05;;
76566;SDS011;65428;53.194;6.132;2023-05-27T12:24:42;11.07;;;4.50;;
76566;SDS011;65428;53.194;6.132;2023-05-27T12:27:08;12.13;;;4.80;;
76566;SDS011;65428;53.194;6.132;2023-05-27T12:29:34;10.70;;;4.60;;
76566;SDS011;65428;53.194;6.132;2023-05-27T12:31:59;12.38;;;4.72;;
76566;SDS011;65428;53.194;6.132;2023-05-27T12:34:25;10.60;;;4.43;;
76566;SDS011;65428;53.194;6.132;2023-05-27T12:36:51;12.03;;;4.70;;
76566;SDS011;65428;53.194;6.132;2023-05-27T12:39:16;11.23;;;4.50;;
76566;SDS011;65428;53.194;6.132;2023-05-27T12:41:42;12.23;;;4.90;;
76566;SDS011;65428;53.194;6.132;2023-05-27T12:44:08;10.93;;;4.82;;
76566;SDS011;65428;53.194;6.132;2023-05-27T12:46:33;11.43;;;5.00;;
76566;SDS011;65428;53.194;6.132;2023-05-27T12:48:59;9.93;;;4.77;;
76566;SDS011;65428;53.194;6.132;2023-05-27T12:51:25;13.32;;;4.57;;
76566;SDS011;65428;53.194;6.132;2023-05-27T12:53:50;11.20;;;4.47;;
76566;SDS011;65428;53.194;6.132;2023-05-27T12:56:16;11.17;;;4.53;;
76566;SDS011;65428;53.194;6.132;2023-05-27T12:58:42;10.02;;;5.18;;
76566;SDS011;65428;53.194;6.132;2023-05-27T13:01:07;10.45;;;4.97;;
76566;SDS011;65428;53.194;6.132;2023-05-27T13:03:33;12.27;;;4.77;;
76566;SDS011;65428;53.194;6.132;2023-05-27T13:05:59;8.80;;;4.05;;
76566;SDS011;65428;53.194;6.132;2023-05-27T13:08:24;10.80;;;4.68;;
76566;SDS011;65428;53.194;6.132;2023-05-27T13:10:50;11.03;;;4.70;;
76566;SDS011;65428;53.194;6.132;2023-05-27T13:13:16;10.00;;;4.88;;
76566;SDS011;65428;53.194;6.132;2023-05-27T13:15:42;11.33;;;4.77;;
76566;SDS011;65428;53.194;6.132;2023-05-27T13:18:08;9.48;;;4.03;;
76566;SDS011;65428;53.194;6.132;2023-05-27T13:20:35;11.73;;;4.10;;
76566;SDS011;65428;53.194;6.132;2023-05-27T13:23:01;11.95;;;4.15;;
76566;SDS011;65428;53.194;6.132;2023-05-27T13:25:28;11.52;;;3.60;;
76566;SDS011;65428;53.194;6.132;2023-05-27T13:27:54;11.85;;;3.63;;
76566;SDS011;65428;53.194;6.132;2023-05-27T13:30:21;14.45;;;3.83;;
76566;SDS011;65428;53.194;6.132;2023-05-27T13:32:47;10.77;;;3.70;;
76566;SDS011;65428;53.194;6.132;2023-05-27T13:35:14;11.82;;;3.85;;
76566;SDS011;65428;53.194;6.132;2023-05-27T13:37:39;10.18;;;3.90;;
76566;SDS011;65428;53.194;6.132;2023-05-27T13:40:06;14.13;;;4.00;;
76566;SDS011;65428;53.194;6.132;2023-05-27T13:42:32;12.85;;;3.65;;
76566;SDS011;65428;53.194;6.132;2023-05-27T13:44:58;11.60;;;3.70;;
76566;SDS011;65428;53.194;6.132;2023-05-27T13:47:23;11.75;;;3.83;;
76566;SDS011;65428;53.194;6.132;2023-05-27T13:49:49;13.43;;;4.00;;
76566;SDS011;65428;53.194;6.132;2023-05-27T13:52:15;13.30;;;3.97;;
76566;SDS011;65428;53.194;6.132;2023-05-27T13:54:40;13.55;;;4.00;;
76566;SDS011;65428;53.194;6.132;2023-05-27T13:57:07;13.38;;;4.30;;
76566;SDS011;65428;53.194;6.132;2023-05-27T13:59:32;11.70;;;3.92;;
76566;SDS011;65428;53.194;6.132;2023-05-27T14:01:58;12.43;;;3.97;;
76566;SDS011;65428;53.194;6.132;2023-05-27T14:04:24;12.90;;;3.87;;
76566;SDS011;65428;53.194;6.132;2023-05-27T14:06:49;12.00;;;4.07;;
76566;SDS011;65428;53.194;6.132;2023-05-27T14:09:15;12.82;;;4.15;;
76566;SDS011;65428;53.194;6.132;2023-05-27T14:11:41;14.37;;;4.23;;
76566;SDS011;65428;53.194;6.132;2023-05-27T14:14:06;11.03;;;3.60;;
76566;SDS011;65428;53.194;6.132;2023-05-27T14:16:32;9.70;;;3.45;;
76566;SDS011;65428;53.194;6.132;2023-05-27T14:18:58;15.32;;;4.43;;
76566;SDS011;65428;53.194;6.132;2023-05-27T14:21:23;12.17;;;3.97;;
76566;SDS011;65428;53.194;6.132;2023-05-27T14:23:49;12.52;;;3.67;;
76566;SDS011;65428;53.194;6.132;2023-05-27T14:26:15;12.63;;;3.65;;
76566;SDS011;65428;53.194;6.132;2023-05-27T14:28:41;13.80;;;4.20;;
76566;SDS011;65428;53.194;6.132;2023-05-27T14:31:07;14.53;;;4.10;;
76566;SDS011;65428;53.194;6.132;2023-05-27T14:33:33;12.68;;;4.30;;
76566;SDS011;65428;53.194;6.132;2023-05-27T14:35:59;15.02;;;4.32;;
76566;SDS011;65428;53.194;6.132;2023-05-27T14:38:25;13.73;;;4.13;;